createdAt,value
2022-09-20T00:01:34.223Z,101503.13
2022-09-20T00:04:06.902Z,101501.25
2022-09-20T00:06:36.861Z,101498.63
2022-09-20T00:09:06.594Z,101496.75
2022-09-20T00:11:37.833Z,101503.88
2022-09-20T00:14:09.446Z,101502.00
2022-09-20T00:16:40.893Z,101502.88
2022-09-20T00:19:10.406Z,101505.56
2022-09-20T00:21:40.143Z,101505.56
2022-09-20T00:24:08.627Z,101505.56
2022-09-20T00:26:37.078Z,101509.09
2022-09-20T00:29:06.594Z,101509.09
2022-09-20T00:31:35.737Z,101516.22
2022-09-20T00:34:21.778Z,101517.09
2022-09-20T00:36:51.507Z,101510.84
2022-09-20T00:39:19.856Z,101516.09
2022-09-20T00:41:48.251Z,101515.16
2022-09-20T00:44:47.718Z,101518.72
2022-09-20T00:47:28.434Z,101515.13
2022-09-20T00:50:06.715Z,101521.41
2022-09-20T00:52:38.255Z,101514.28
2022-09-20T00:55:09.861Z,101522.34
2022-09-20T00:57:39.276Z,101523.34
2022-09-20T01:00:12.583Z,101524.28
2022-09-20T01:02:46.954Z,101525.22
2022-09-20T01:05:16.863Z,101529.72
2022-09-20T01:07:49.380Z,101523.47
2022-09-20T01:10:17.816Z,101527.97
2022-09-20T01:12:47.901Z,101532.47
2022-09-20T01:15:17.031Z,101528.03
2022-09-20T01:17:51.425Z,101532.59
2022-09-20T01:20:24.546Z,101529.03
2022-09-20T01:23:44.962Z,101535.44
2022-09-20T01:27:00.864Z,101534.69
2022-09-20T01:30:02.485Z,101534.88
2022-09-20T01:32:47.094Z,101531.41
2022-09-20T01:35:19.272Z,101530.59
2022-09-20T01:38:03.363Z,101540.66
2022-09-20T01:40:40.518Z,101536.28
2022-09-20T01:43:19.388Z,101543.56
2022-09-20T01:45:50.708Z,101539.25
2022-09-20T01:48:32.401Z,101549.22
2022-09-20T01:51:37.645Z,101551.19
2022-09-20T01:54:52.286Z,101552.19
2022-09-20T01:58:04.990Z,101559.41
2022-09-20T02:00:40.069Z,101554.19
2022-09-20T02:04:05.286Z,101552.44
2022-09-20T02:07:09.746Z,101565.84
2022-09-20T02:10:32.162Z,101563.16
2022-09-20T02:13:04.210Z,101570.28
2022-09-20T02:16:12.242Z,101569.41
2022-09-20T02:19:08.100Z,101558.66
2022-09-20T02:21:45.583Z,101570.28
2022-09-20T02:24:29.450Z,101577.44
2022-09-20T02:27:13.302Z,101573.88
2022-09-20T02:29:50.607Z,101565.84
2022-09-20T02:32:33.309Z,101571.19
2022-09-20T02:35:17.917Z,101571.25
2022-09-20T02:38:04.224Z,101574.81
2022-09-20T02:41:01.956Z,101573.94
2022-09-20T02:43:41.521Z,101576.66
2022-09-20T02:46:19.168Z,101580.22
2022-09-20T02:48:55.841Z,101583.81
2022-09-20T02:51:34.193Z,101585.69
2022-09-20T02:54:14.008Z,101592.06
2022-09-20T02:56:53.336Z,101579.56
2022-09-20T02:59:33.462Z,101585.88
2022-09-20T03:02:16.250Z,101588.66
2022-09-20T03:05:03.429Z,101585.13
2022-09-20T03:07:43.885Z,101592.28
2022-09-20T03:10:21.274Z,101597.59
2022-09-20T03:13:23.801Z,101599.41
2022-09-20T03:16:06.433Z,101602.94
2022-09-20T03:18:50.048Z,101608.31
2022-09-20T03:21:37.771Z,101608.38
2022-09-20T03:24:19.151Z,101608.38
2022-09-20T03:26:56.784Z,101611.06
2022-09-20T03:29:47.331Z,101609.38
2022-09-20T03:32:35.590Z,101605.94
2022-09-20T03:35:29.420Z,101606.94
2022-09-20T03:38:20.652Z,101608.81
2022-09-20T03:41:23.253Z,101619.59
2022-09-20T03:44:11.957Z,101609.06
2022-09-20T03:46:46.970Z,101607.38
2022-09-20T03:49:48.075Z,101609.22
2022-09-20T03:52:40.527Z,101614.69
2022-09-20T03:55:54.207Z,101605.81
2022-09-20T03:58:41.300Z,101619.28
2022-09-20T04:01:33.066Z,101612.16
2022-09-20T04:04:12.826Z,101610.41
2022-09-20T04:07:02.759Z,101610.47
2022-09-20T04:10:02.304Z,101611.41
2022-09-20T04:12:44.390Z,101615.00
2022-09-20T04:15:28.462Z,101609.72
2022-09-20T04:18:04.605Z,101619.63
2022-09-20T04:20:44.313Z,101622.41
2022-09-20T04:23:25.870Z,101633.25
2022-09-20T04:25:54.250Z,101632.44
2022-09-20T04:28:30.221Z,101623.59
2022-09-20T04:31:11.100Z,101629.94
2022-09-20T04:33:49.557Z,101631.78
2022-09-20T04:36:56.173Z,101626.53
2022-09-20T04:39:39.414Z,101637.34
2022-09-20T04:43:02.382Z,101642.91
2022-09-20T04:46:31.108Z,101631.47
2022-09-20T04:49:53.496Z,101642.31
2022-09-20T04:53:22.617Z,101641.53
2022-09-20T04:56:01.935Z,101643.44
2022-09-20T04:58:49.268Z,101649.75
2022-09-20T05:02:15.661Z,101651.66
2022-09-20T05:05:35.865Z,101648.16
2022-09-20T05:08:51.180Z,101646.47
2022-09-20T05:12:01.757Z,101654.59
2022-09-20T05:15:08.140Z,101654.59
2022-09-20T05:18:15.175Z,101656.41
2022-09-20T05:20:53.951Z,101656.41
2022-09-20T05:24:02.990Z,101658.19
2022-09-20T05:26:46.254Z,101660.78
2022-09-20T05:29:21.563Z,101665.09
2022-09-20T05:32:00.430Z,101673.03
2022-09-20T05:34:42.389Z,101677.44
2022-09-20T05:37:25.407Z,101680.06
2022-09-20T05:40:06.066Z,101683.50
2022-09-20T05:42:44.259Z,101687.00
2022-09-20T05:45:35.221Z,101688.72
2022-09-20T05:48:14.973Z,101684.19
2022-09-20T05:50:55.750Z,101686.78
2022-09-20T05:53:51.809Z,101692.03
2022-09-20T05:56:42.994Z,101686.53
2022-09-20T05:59:28.935Z,101689.97
2022-09-20T06:02:18.971Z,101696.84
2022-09-20T06:04:59.037Z,101694.81
2022-09-20T06:07:43.097Z,101690.97
2022-09-20T06:10:31.093Z,101687.97
2022-09-20T06:13:12.849Z,101696.53
2022-09-20T06:15:49.661Z,101697.06
2022-09-20T06:18:28.821Z,101700.25
2022-09-20T06:21:12.052Z,101697.13
2022-09-20T06:23:40.388Z,101699.44
2022-09-20T06:26:17.360Z,101701.75
2022-09-20T06:28:54.195Z,101694.28
2022-09-20T06:31:24.869Z,101701.13
2022-09-20T06:33:58.509Z,101699.94
2022-09-20T06:36:49.753Z,101705.00
2022-09-20T06:39:46.651Z,101709.91
2022-09-20T06:42:14.875Z,101715.00
2022-09-20T06:44:44.460Z,101716.44
2022-09-20T06:47:14.257Z,101715.16
2022-09-20T06:49:46.945Z,101721.06
2022-09-20T06:52:17.149Z,101723.44
2022-09-20T06:54:46.727Z,101715.00
2022-09-20T06:57:18.187Z,101714.56
2022-09-20T06:59:47.733Z,101723.97
2022-09-20T07:02:15.948Z,101729.78
2022-09-20T07:04:45.160Z,101736.41
2022-09-20T07:07:23.047Z,101739.41
2022-09-20T07:09:54.831Z,101744.09
2022-09-20T07:12:23.153Z,101741.47
2022-09-20T07:14:52.791Z,101736.09
2022-09-20T07:17:22.197Z,101737.88
2022-09-20T07:19:50.349Z,101745.88
2022-09-20T07:22:18.551Z,101750.31
2022-09-20T07:24:47.875Z,101744.66
2022-09-20T07:27:16.444Z,101745.34
2022-09-20T07:29:46.162Z,101757.78
2022-09-20T07:32:17.207Z,101744.97
2022-09-20T07:34:45.932Z,101756.50
2022-09-20T07:37:14.146Z,101750.31
2022-09-20T07:39:42.371Z,101757.84
2022-09-20T07:42:10.556Z,101758.06
2022-09-20T07:44:42.318Z,101751.75
2022-09-20T07:47:14.043Z,101752.66
2022-09-20T07:49:43.637Z,101756.53
2022-09-20T07:52:12.419Z,101755.84
2022-09-20T07:54:40.917Z,101752.06
2022-09-20T07:57:09.165Z,101756.41
2022-09-20T07:59:37.317Z,101762.69
2022-09-20T08:02:05.621Z,101770.88
2022-09-20T08:04:33.840Z,101765.75
2022-09-20T08:07:03.404Z,101763.09
2022-09-20T08:09:31.535Z,101764.91
2022-09-20T08:11:59.793Z,101766.72
2022-09-20T08:14:28.574Z,101771.56
2022-09-20T08:16:58.195Z,101771.97
2022-09-20T08:19:26.782Z,101776.06
2022-09-20T08:21:55.150Z,101774.53
2022-09-20T08:24:26.132Z,101773.38
2022-09-20T08:26:54.427Z,101776.75
2022-09-20T08:29:22.619Z,101781.31
2022-09-20T08:31:52.598Z,101782.72
2022-09-20T08:34:21.025Z,101783.81
2022-09-20T08:36:51.845Z,101781.00
2022-09-20T08:42:24.133Z,101791.84
2022-09-20T08:44:58.532Z,101791.28
2022-09-20T08:47:31.116Z,101786.94
2022-09-20T08:50:00.715Z,101796.69
2022-09-20T08:52:37.342Z,101800.28
2022-09-20T08:55:16.792Z,101799.34
2022-09-20T08:57:50.361Z,101801.41
2022-09-20T09:00:21.885Z,101805.97
2022-09-20T09:02:53.154Z,101805.38
2022-09-20T09:05:34.885Z,101808.66
2022-09-20T09:08:10.125Z,101802.19
2022-09-20T09:10:44.232Z,101794.72
2022-09-20T09:13:26.486Z,101793.63
2022-09-20T09:16:01.644Z,101792.72
2022-09-20T09:18:36.342Z,101799.78
2022-09-20T09:21:07.815Z,101802.94
2022-09-20T09:23:43.119Z,101804.09
2022-09-20T09:26:22.276Z,101802.91
2022-09-20T09:29:19.288Z,101808.34
2022-09-20T09:31:50.391Z,101800.56
2022-09-20T09:34:27.850Z,101804.16
2022-09-20T09:36:57.114Z,101815.88
2022-09-20T09:39:27.834Z,101813.06
2022-09-20T09:41:57.284Z,101809.16
2022-09-20T09:44:28.725Z,101810.50
2022-09-20T09:46:58.618Z,101807.31
2022-09-20T09:49:29.340Z,101808.84
2022-09-20T09:52:12.973Z,101812.25
2022-09-20T09:54:44.600Z,101811.50
2022-09-20T09:57:34.108Z,101812.72
2022-09-20T10:00:19.510Z,101807.59
2022-09-20T10:03:22.818Z,101814.78
2022-09-20T10:06:08.609Z,101811.63
2022-09-20T10:08:54.191Z,101817.06
2022-09-20T10:11:38.877Z,101816.31
2022-09-20T10:14:24.594Z,101810.53
2022-09-20T10:17:10.799Z,101816.31
2022-09-20T10:19:59.403Z,101817.41
2022-09-20T10:22:38.323Z,101820.66
2022-09-20T10:25:23.140Z,101812.84
2022-09-20T10:28:09.112Z,101816.44
2022-09-20T10:30:52.423Z,101815.00
2022-09-20T10:33:32.252Z,101814.47
2022-09-20T10:36:21.292Z,101821.19
2022-09-20T10:38:58.527Z,101819.31
2022-09-20T10:42:03.987Z,101819.03
2022-09-20T10:44:55.228Z,101814.38
2022-09-20T10:47:31.544Z,101818.72
2022-09-20T10:50:14.552Z,101820.03
2022-09-20T10:53:02.758Z,101823.59
2022-09-20T10:55:42.404Z,101825.78
2022-09-20T10:58:51.990Z,101828.59
2022-09-20T11:01:31.451Z,101836.47
2022-09-20T11:04:50.993Z,101830.22
2022-09-20T11:07:32.831Z,101827.72
2022-09-20T11:10:08.059Z,101835.03
2022-09-20T11:12:42.889Z,101835.66
2022-09-20T11:15:24.588Z,101846.81
2022-09-20T11:18:06.030Z,101849.53
2022-09-20T11:20:44.207Z,101848.03
2022-09-20T11:23:19.795Z,101852.97
2022-09-20T11:25:52.713Z,101846.66
2022-09-20T11:28:27.515Z,101847.69
2022-09-20T11:31:05.143Z,101853.09
2022-09-20T11:33:41.438Z,101844.81
2022-09-20T11:36:16.538Z,101853.97
2022-09-20T11:38:53.504Z,101858.78
2022-09-20T11:41:27.627Z,101851.59
2022-09-20T11:44:01.237Z,101851.81
2022-09-20T11:46:34.626Z,101848.31
2022-09-20T11:49:11.034Z,101848.31
2022-09-20T11:52:15.292Z,101852.03
2022-09-20T11:55:19.776Z,101856.50
2022-09-20T11:58:00.069Z,101853.09
2022-09-20T12:00:35.265Z,101851.97
2022-09-20T12:03:06.737Z,101860.31
2022-09-20T12:05:39.353Z,101854.84
2022-09-20T12:08:19.365Z,101850.25
2022-09-20T12:11:01.803Z,101865.34
2022-09-20T12:13:30.027Z,101859.88
2022-09-20T12:16:03.592Z,101857.22
2022-09-20T12:19:03.155Z,101863.44
2022-09-20T12:21:31.382Z,101867.66
2022-09-20T12:24:22.855Z,101859.78
2022-09-20T12:27:02.800Z,101860.41
2022-09-20T12:30:16.030Z,101863.19
2022-09-20T12:32:59.267Z,101866.72
2022-09-20T12:36:15.707Z,101865.00
2022-09-20T12:39:03.722Z,101861.59
2022-09-20T12:41:52.506Z,101865.03
2022-09-20T12:44:36.496Z,101863.06
2022-09-20T12:47:08.911Z,101867.59
2022-09-20T12:50:09.032Z,101862.22
2022-09-20T12:52:56.868Z,101862.28
2022-09-20T12:55:52.869Z,101861.38
2022-09-20T12:58:38.375Z,101865.91
2022-09-20T13:01:38.034Z,101867.78
2022-09-20T13:04:57.385Z,101866.16
2022-09-20T13:07:50.783Z,101870.94
2022-09-20T13:10:29.922Z,101867.66
2022-09-20T13:13:06.253Z,101867.81
2022-09-20T13:15:35.645Z,101872.84
2022-09-20T13:18:08.281Z,101865.28
2022-09-20T13:20:36.711Z,101870.47
2022-09-20T13:23:06.421Z,101872.59
2022-09-20T13:25:40.007Z,101870.44
2022-09-20T13:28:21.081Z,101865.03
2022-09-20T13:30:49.715Z,101862.06
2022-09-20T13:33:24.880Z,101864.78
2022-09-20T13:35:59.014Z,101864.91
2022-09-20T13:38:32.367Z,101863.63
2022-09-20T13:41:09.044Z,101867.59
2022-09-20T13:43:41.136Z,101872.50
2022-09-20T13:46:12.053Z,101877.75
2022-09-20T13:48:42.564Z,101873.56
2022-09-20T13:51:19.901Z,101875.38
2022-09-20T13:53:48.507Z,101877.06
2022-09-20T13:56:23.903Z,101874.47
2022-09-20T13:58:53.735Z,101877.00
2022-09-20T14:01:28.985Z,101884.44
2022-09-20T14:04:06.237Z,101884.66
2022-09-20T14:06:34.772Z,101880.13
2022-09-20T14:09:11.040Z,101885.50
2022-09-20T14:11:41.073Z,101884.06
2022-09-20T14:14:12.576Z,101886.22
2022-09-20T14:16:45.177Z,101886.63
2022-09-20T14:19:16.410Z,101880.09
2022-09-20T14:21:45.349Z,101883.91
2022-09-20T14:24:31.977Z,101885.13
2022-09-20T14:27:23.468Z,101890.00
2022-09-20T14:29:53.611Z,101883.59
2022-09-20T14:32:44.368Z,101887.38
2022-09-20T14:35:21.964Z,101885.75
2022-09-20T14:37:53.167Z,101893.16
2022-09-20T14:40:25.993Z,101888.91
2022-09-20T14:42:57.921Z,101894.13
2022-09-20T14:45:31.313Z,101893.88
2022-09-20T14:48:10.143Z,101905.28
2022-09-20T14:50:43.249Z,101894.81
2022-09-20T14:53:27.268Z,101898.94
2022-09-20T14:56:11.502Z,101901.75
2022-09-20T14:59:20.288Z,101905.31
2022-09-20T15:02:02.949Z,101903.19
2022-09-20T15:04:33.007Z,101901.13
2022-09-20T15:07:06.554Z,101897.31
2022-09-20T15:09:35.839Z,101896.34
2022-09-20T15:12:06.757Z,101905.38
2022-09-20T15:14:37.785Z,101910.63
2022-09-20T15:17:07.292Z,101905.28
2022-09-20T15:19:35.499Z,101904.41
2022-09-20T15:22:05.494Z,101910.91
2022-09-20T15:24:33.692Z,101917.44
2022-09-20T15:27:01.891Z,101922.44
2022-09-20T15:29:30.758Z,101915.66
2022-09-20T15:31:58.976Z,101919.66
2022-09-20T15:34:27.341Z,101921.91
2022-09-20T15:36:55.957Z,101921.47
2022-09-20T15:39:25.972Z,101918.22
2022-09-20T15:41:54.841Z,101926.88
2022-09-20T15:44:23.067Z,101935.44
2022-09-20T15:46:53.191Z,101939.72
2022-09-20T15:49:22.229Z,101935.75
2022-09-20T15:51:50.486Z,101939.06
2022-09-20T15:54:18.742Z,101945.00
2022-09-20T15:56:48.819Z,101938.38
2022-09-20T15:59:17.301Z,101935.31
2022-09-20T16:01:48.161Z,101942.16
2022-09-20T16:04:19.642Z,101946.31
2022-09-20T16:06:49.998Z,101946.91
2022-09-20T16:09:19.185Z,101946.50
2022-09-20T16:11:49.361Z,101945.13
2022-09-20T16:14:17.604Z,101949.16
2022-09-20T16:16:45.904Z,101955.81
2022-09-20T16:19:20.791Z,101958.72
2022-09-20T16:21:57.781Z,101966.16
2022-09-20T16:24:29.546Z,101959.97
2022-09-20T16:27:00.806Z,101968.09
2022-09-20T16:29:30.127Z,101964.50
2022-09-20T16:32:00.306Z,101968.88
2022-09-20T16:34:31.290Z,101966.06
2022-09-20T16:37:01.654Z,101981.38
2022-09-20T16:39:31.612Z,101983.03
2022-09-20T16:42:05.015Z,101971.31
2022-09-20T16:44:34.896Z,101982.06
2022-09-20T16:47:03.346Z,101989.31
2022-09-20T16:49:31.588Z,101988.44
2022-09-20T16:51:59.810Z,101987.66
2022-09-20T16:54:31.793Z,101996.00
2022-09-20T16:57:02.123Z,101997.22
2022-09-20T16:59:30.354Z,101992.16
2022-09-20T17:01:58.919Z,101998.03
2022-09-20T17:04:27.255Z,101996.84
2022-09-20T17:06:55.708Z,101993.78
2022-09-20T17:09:23.961Z,102008.81
2022-09-20T17:11:52.708Z,102006.81
2022-09-20T17:14:22.492Z,102005.66
2022-09-20T17:16:51.248Z,102018.84
2022-09-20T17:19:22.546Z,102010.50
2022-09-20T17:21:52.118Z,102018.34
2022-09-20T17:24:22.225Z,102024.34
2022-09-20T17:26:51.769Z,102019.59
2022-09-20T17:29:22.516Z,102026.53
2022-09-20T17:31:55.763Z,102027.09
2022-09-20T17:34:25.587Z,102036.63
2022-09-20T17:36:55.401Z,102037.19
2022-09-20T17:39:24.090Z,102042.22
2022-09-20T17:41:52.624Z,102043.63
2022-09-20T17:44:22.632Z,102045.91
2022-09-20T17:46:54.052Z,102052.63
2022-09-20T17:49:24.387Z,102053.16
2022-09-20T17:51:55.000Z,102048.22
2022-09-20T17:54:24.472Z,102057.66
2022-09-20T17:56:55.851Z,102066.09
2022-09-20T17:59:25.857Z,102065.59
2022-09-20T18:01:55.635Z,102060.53
2022-09-20T18:04:25.043Z,102060.91
2022-09-20T18:06:55.441Z,102070.22
2022-09-20T18:09:27.073Z,102068.75
2022-09-20T18:11:56.586Z,102078.91
2022-09-20T18:14:28.462Z,102077.28
2022-09-20T18:17:00.763Z,102075.66
2022-09-20T18:19:32.985Z,102082.16
2022-09-20T18:22:02.075Z,102090.47
2022-09-20T18:24:31.525Z,102084.38
2022-09-20T18:27:00.857Z,102095.47
2022-09-20T18:29:36.436Z,102095.69
2022-09-20T18:32:04.848Z,102100.38
2022-09-20T18:34:34.139Z,102102.44
2022-09-20T18:37:04.507Z,102102.69
2022-09-20T18:39:34.830Z,102099.31
2022-09-20T18:42:04.491Z,102103.09
2022-09-20T18:44:34.336Z,102106.84
2022-09-20T18:47:03.738Z,102103.47
2022-09-20T18:49:32.632Z,102114.41
2022-09-20T18:52:00.984Z,102111.88
2022-09-20T18:54:30.485Z,102120.97
2022-09-20T18:56:59.570Z,102119.31
2022-09-20T18:59:29.285Z,102130.16
2022-09-20T19:02:17.791Z,102133.91
2022-09-20T19:05:17.640Z,102128.78
2022-09-20T19:08:14.232Z,102133.47
2022-09-20T19:10:50.140Z,102133.66
2022-09-20T19:13:32.369Z,102138.31
2022-09-20T19:16:23.473Z,102141.22
2022-09-20T19:19:16.140Z,102136.03
2022-09-20T19:21:51.489Z,102136.13
2022-09-20T19:24:48.031Z,102134.53
2022-09-20T19:27:16.782Z,102134.66
2022-09-20T19:29:46.174Z,102153.66
2022-09-20T19:32:21.222Z,102148.44
2022-09-20T19:34:55.784Z,102145.06
2022-09-20T19:37:36.638Z,102158.72
2022-09-20T19:40:29.896Z,102159.81
2022-09-20T19:43:10.865Z,102154.75
2022-09-20T19:45:47.367Z,102149.41
2022-09-20T19:48:24.026Z,102162.03
2022-09-20T19:50:55.078Z,102163.91
2022-09-20T19:53:28.298Z,102167.66
2022-09-20T19:56:03.886Z,102166.03
2022-09-20T19:58:33.119Z,102170.63
2022-09-20T20:01:02.119Z,102173.44
2022-09-20T20:03:31.201Z,102174.50
2022-09-20T20:06:08.354Z,102176.47
2022-09-20T20:08:45.413Z,102173.88
2022-09-20T20:11:27.363Z,102181.19
2022-09-20T20:14:07.357Z,102185.81
2022-09-20T20:16:51.249Z,102181.47
2022-09-20T20:19:58.830Z,102187.97
2022-09-20T20:23:05.078Z,102188.09
2022-09-20T20:25:42.384Z,102185.59
2022-09-20T20:28:10.805Z,102188.38
2022-09-20T20:30:38.994Z,102187.56
2022-09-20T20:33:07.388Z,102187.66
2022-09-20T20:35:37.407Z,102186.78
2022-09-20T20:38:10.735Z,102191.34
2022-09-20T20:40:39.187Z,102196.72
2022-09-20T20:43:07.655Z,102191.38
2022-09-20T20:45:35.894Z,102198.66
2022-09-20T20:48:04.314Z,102203.19
2022-09-20T20:50:33.049Z,102202.38
2022-09-20T20:53:01.217Z,102205.09
2022-09-20T20:55:31.109Z,102206.97
2022-09-20T20:57:59.606Z,102210.59
2022-09-20T21:00:29.991Z,102217.84
2022-09-20T21:02:59.943Z,102212.56
2022-09-20T21:05:29.233Z,102217.16
2022-09-20T21:07:57.952Z,102210.94
2022-09-20T21:10:26.409Z,102218.25
2022-09-20T21:12:56.865Z,102225.47
2022-09-20T21:15:25.145Z,102231.84
2022-09-20T21:17:54.982Z,102237.34
2022-09-20T21:20:23.230Z,102224.00
2022-09-20T21:22:51.429Z,102232.13
2022-09-20T21:25:19.611Z,102229.56
2022-09-20T21:27:47.825Z,102231.47
2022-09-20T21:30:17.738Z,102235.09
2022-09-20T21:32:45.900Z,102233.41
2022-09-20T21:35:14.234Z,102237.13
2022-09-20T21:37:45.329Z,102234.53
2022-09-20T21:40:13.559Z,102237.31
2022-09-20T21:42:41.779Z,102239.16
2022-09-20T21:45:11.044Z,102237.50
2022-09-20T21:47:40.571Z,102240.31
2022-09-20T21:50:10.351Z,102245.75
2022-09-20T21:52:38.545Z,102234.16
2022-09-20T21:55:10.806Z,102240.44
2022-09-20T21:57:39.030Z,102238.72
2022-09-20T22:00:09.874Z,102248.66
2022-09-20T22:02:38.499Z,102244.25
2022-09-20T22:05:09.078Z,102247.94
2022-09-20T22:07:37.267Z,102254.25
2022-09-20T22:10:06.546Z,102258.84
2022-09-20T22:12:34.879Z,102258.00
2022-09-20T22:15:03.055Z,102256.31
2022-09-20T22:17:31.251Z,102255.47
2022-09-20T22:19:59.513Z,102259.16
2022-09-20T22:22:30.062Z,102266.38
2022-09-20T22:24:58.263Z,102255.63
2022-09-20T22:27:26.470Z,102255.72
2022-09-20T22:29:54.716Z,102258.47
2022-09-20T22:32:22.904Z,102260.28
2022-09-20T22:34:51.109Z,102267.56
2022-09-20T22:37:19.313Z,102267.66
2022-09-20T22:39:48.865Z,102269.50
2022-09-20T22:42:17.023Z,102272.22
2022-09-20T22:44:45.188Z,102277.63
2022-09-20T22:47:13.411Z,102275.91
2022-09-20T22:49:43.300Z,102271.50
2022-09-20T22:52:11.516Z,102277.81
2022-09-20T22:54:39.778Z,102273.41
2022-09-20T22:57:09.354Z,102274.38
2022-09-20T22:59:37.569Z,102275.31
2022-09-20T23:02:05.881Z,102275.38
2022-09-20T23:04:34.077Z,102276.34
2022-09-20T23:07:02.538Z,102279.06
2022-09-20T23:09:30.719Z,102273.78
2022-09-20T23:11:58.928Z,102265.78
2022-09-20T23:14:28.540Z,102273.94
2022-09-20T23:16:56.736Z,102277.53
2022-09-20T23:19:25.022Z,102283.88
2022-09-20T23:21:53.230Z,102289.28
2022-09-20T23:24:21.430Z,102283.97
2022-09-20T23:26:49.678Z,102290.28
2022-09-20T23:29:18.200Z,102294.84
2022-09-20T23:31:48.018Z,102299.38
2022-09-20T23:34:17.318Z,102294.97
2022-09-20T23:36:46.470Z,102299.56
2022-09-20T23:39:15.067Z,102295.09
2022-09-20T23:41:48.364Z,102301.41
2022-09-20T23:44:18.350Z,102303.22
2022-09-20T23:46:47.885Z,102302.38
2022-09-20T23:49:16.144Z,102310.47
2022-09-20T23:51:44.337Z,102300.66
2022-09-20T23:54:12.546Z,102306.03
2022-09-20T23:56:42.765Z,102305.16
2022-09-20T23:59:10.986Z,102306.06
